1869 NOT_NAMED (1869305S06092)


IBTrACS version v04r00. Visit IBTrACS website for data access.
Please direct all questions to the IBTrACS Q and A forum

Storm track - Intensity - Wind Radii - Intensity Data - Source Data - All data

Summary Information

Storm ID 1869305S06092
Start Nov 1 06Z
End Nov 8 06Z
ATCF IDs
Track status Best track data.
Spur track This storm is a spur track associated with the main storm: 1869305S06092

Storm track plot

Map of storm track

Intensity plots

No Intensity information for this storm


Radial wind information

No radial wind information for this storm


Position and Intensity Table

BASIN ISO_TIME_________ NATURE LAT LON
degrees north degrees east
SI 1869-11-01 06:00:00 NR -6.30 92.30
SI 09:00:00 NR -6.32 92.26
SI 12:00:00 NR -6.35 92.20
SI 15:00:00 NR -6.39 92.12
SI 18:00:00 NR -6.46 92.01
SI 21:00:00 NR -6.55 91.86
SI 1869-11-02 00:00:00 NR -6.69 91.64
SI 03:00:00 NR -6.87 91.36
SI 06:00:00 NR -7.10 91.00
SI 09:00:00 NR -7.39 90.55
SI 12:00:00 NR -7.73 90.03
SI 15:00:00 NR -8.10 89.47
SI 18:00:00 NR -8.50 88.88
SI 21:00:00 NR -8.91 88.28
SI 1869-11-03 00:00:00 NR -9.32 87.71
SI 03:00:00 NR -9.72 87.17
SI 06:00:00 NR -10.10 86.70
SI 09:00:00 NR -10.40 86.37
SI 12:00:00 NR -10.68 86.09
SI 15:00:00 NR -10.96 85.86
SI 18:00:00 NR -11.22 85.66
SI 21:00:00 NR -11.48 85.50
SI 1869-11-04 00:00:00 NR -11.74 85.36
SI 03:00:00 NR -12.02 85.23
SI 06:00:00 NR -12.30 85.10
SI 09:00:00 NR -12.62 84.91
SI 12:00:00 NR -12.95 84.74
SI 15:00:00 NR -13.28 84.56
SI 18:00:00 NR -13.63 84.40
SI 21:00:00 NR -13.97 84.25
SI 1869-11-05 00:00:00 NR -14.32 84.12
SI 03:00:00 NR -14.66 84.00
SI 06:00:00 NR -15.00 83.90
SI 09:00:00 NR -15.32 83.81
SI 12:00:00 NR -15.64 83.73
SI 15:00:00 NR -15.95 83.67
SI 18:00:00 NR -16.26 83.62
SI 21:00:00 NR -16.57 83.59
SI 1869-11-06 00:00:00 NR -16.88 83.58
SI 03:00:00 NR -17.19 83.58
SI 06:00:00 NR -17.50 83.60
SI 09:00:00 NR -17.84 83.62
SI 12:00:00 NR -18.19 83.66
SI 15:00:00 NR -18.54 83.71
SI 18:00:00 NR -18.88 83.77
SI 21:00:00 NR -19.21 83.85
SI 1869-11-07 00:00:00 NR -19.53 83.93
SI 03:00:00 NR -19.83 84.01
SI 06:00:00 NR -20.10 84.10
SI 09:00:00 NR -20.34 84.19
SI 12:00:00 NR -20.56 84.28
SI 15:00:00 NR -20.75 84.36
SI 18:00:00 NR -20.92 84.45
SI 21:00:00 NR -21.08 84.54
SI 1869-11-08 00:00:00 NR -21.23 84.63
SI 03:00:00 NR -21.37 84.71
SI 06:00:00 NR -21.50 84.80

Source Information

Agency Information
USA
TOKYO
CMA
HKO
NEWDELHI
REUNION WMO-Best-Tracks.txt:Line=790:xxxx869117
BOM
NADI
WELLINGTON
DS824
TD9636
TD9635
NEUMANN
MLC

All available IBTrACS Data

SEASON BASIN SUBBASIN ISO_TIME_________ NATURE LAT LON DIST2LAND LANDFALL IFLAG USA SSHS REUNION LAT REUNION LON REUNION TYPE REUNION TNUM STORM SPEED STORM DIR
Year degrees north degrees east km km 1 degrees north degrees east 1 kts degrees
1870 SI WA 1869-11-01 06:00:00 NR -6.30 92.30 895 895 _____O________ -1 -6.30 92.30 99 9.90 1 239
1870 SI WA 09:00:00 NR -6.32 92.26 895 895 _____P________ -1 -6.32 92.26 99 1 244
1870 SI WA 12:00:00 NR -6.35 92.20 904 904 _____P________ -1 -6.35 92.20 99 1 241
1870 SI WA 15:00:00 NR -6.39 92.12 920 920 _____P________ -1 -6.39 92.12 99 2 240
1870 SI WA 18:00:00 NR -6.46 92.01 935 935 _____P________ -1 -6.46 92.01 99 3 239
1870 SI WA 21:00:00 NR -6.55 91.86 951 951 _____P________ -1 -6.55 91.86 99 4 238
1870 SI WA 1869-11-02 00:00:00 NR -6.69 91.64 985 985 _____P________ -1 -6.69 91.64 99 6 237
1870 SI WA 03:00:00 NR -6.87 91.36 1015 1015 _____P________ -1 -6.87 91.36 99 8 237
1870 SI WA 06:00:00 NR -7.10 91.00 1065 1065 _____O________ -1 -7.10 91.00 99 9.90 10 237
1870 SI WA 09:00:00 NR -7.39 90.55 1120 1120 _____P________ -1 -7.39 90.55 99 11 237
1870 SI WA 12:00:00 NR -7.73 90.03 1194 1194 _____P________ -1 -7.73 90.03 99 13 236
1870 SI MM 15:00:00 NR -8.10 89.47 1264 1264 _____P________ -1 -8.10 89.47 99 14 236
1870 SI MM 18:00:00 NR -8.50 88.88 1344 1344 _____P________ -1 -8.50 88.88 99 14 235
1870 SI MM 21:00:00 NR -8.91 88.28 1424 1424 _____P________ -1 -8.91 88.28 99 14 235
1870 SI MM 1869-11-03 00:00:00 NR -9.32 87.71 1504 1504 _____P________ -1 -9.32 87.71 99 14 233
1870 SI MM 03:00:00 NR -9.72 87.17 1574 1574 _____P________ -1 -9.72 87.17 99 13 232
1870 SI MM 06:00:00 NR -10.10 86.70 1645 1645 _____O________ -1 -10.10 86.70 99 9.90 10 229
1870 SI MM 09:00:00 NR -10.40 86.37 1691 1691 _____P________ -1 -10.40 86.37 99 8 226
1870 SI MM 12:00:00 NR -10.68 86.09 1737 1737 _____P________ -1 -10.68 86.09 99 8 222
1870 SI MM 15:00:00 NR -10.96 85.86 1774 1774 _____P________ -1 -10.96 85.86 99 7 218
1870 SI MM 18:00:00 NR -11.22 85.66 1805 1805 _____P________ -1 -11.22 85.66 99 6 213
1870 SI MM 21:00:00 NR -11.48 85.50 1842 1842 _____P________ -1 -11.48 85.50 99 6 210
1870 SI MM 1869-11-04 00:00:00 NR -11.74 85.36 1864 1864 _____P________ -1 -11.74 85.36 99 6 207
1870 SI MM 03:00:00 NR -12.02 85.23 1901 1901 _____P________ -1 -12.02 85.23 99 6 205
1870 SI MM 06:00:00 NR -12.30 85.10 1930 1930 _____O________ -1 -12.30 85.10 99 9.90 7 207
1870 SI MM 09:00:00 NR -12.62 84.91 1968 1968 _____P________ -1 -12.62 84.91 99 7 209
1870 SI MM 12:00:00 NR -12.95 84.74 2005 2005 _____P________ -1 -12.95 84.74 99 8 207
1870 SI MM 15:00:00 NR -13.28 84.56 2041 2041 _____P________ -1 -13.28 84.56 99 8 205
1870 SI MM 18:00:00 NR -13.63 84.40 2079 2079 _____P________ -1 -13.63 84.40 99 8 204
1870 SI MM 21:00:00 NR -13.97 84.25 2116 2116 _____P________ -1 -13.97 84.25 99 7 202
1870 SI MM 1869-11-05 00:00:00 NR -14.32 84.12 2154 2154 _____P________ -1 -14.32 84.12 99 7 200
1870 SI MM 03:00:00 NR -14.66 84.00 2191 2191 _____P________ -1 -14.66 84.00 99 7 197
1870 SI MM 06:00:00 NR -15.00 83.90 2221 2221 _____O________ -1 -15.00 83.90 99 9.90 7 196
1870 SI MM 09:00:00 NR -15.32 83.81 2251 2251 _____P________ -1 -15.32 83.81 99 7 195
1870 SI MM 12:00:00 NR -15.64 83.73 2281 2281 _____P________ -1 -15.64 83.73 99 6 192
1870 SI MM 15:00:00 NR -15.95 83.67 2304 2304 _____P________ -1 -15.95 83.67 99 6 189
1870 SI MM 18:00:00 NR -16.26 83.62 2342 2342 _____P________ -1 -16.26 83.62 99 6 186
1870 SI MM 21:00:00 NR -16.57 83.59 2364 2364 _____P________ -1 -16.57 83.59 99 6 183
1870 SI MM 1869-11-06 00:00:00 NR -16.88 83.58 2388 2388 _____P________ -1 -16.88 83.58 99 6 182
1870 SI MM 03:00:00 NR -17.19 83.58 2411 2411 _____P________ -1 -17.19 83.58 99 6 179
1870 SI MM 06:00:00 NR -17.50 83.60 2435 2435 _____O________ -1 -17.50 83.60 99 9.90 7 178
1870 SI MM 09:00:00 NR -17.84 83.62 2458 2458 _____P________ -1 -17.84 83.62 99 7 176
1870 SI MM 12:00:00 NR -18.19 83.66 2483 2483 _____P________ -1 -18.19 83.66 99 7 173
1870 SI MM 15:00:00 NR -18.54 83.71 2508 2508 _____P________ -1 -18.54 83.71 99 7 171
1870 SI MM 18:00:00 NR -18.88 83.77 2533 2533 _____P________ -1 -18.88 83.77 99 7 169
1870 SI MM 21:00:00 NR -19.21 83.85 2558 2551 _____P________ -1 -19.21 83.85 99 7 167
1870 SI MM 1869-11-07 00:00:00 NR -19.53 83.93 2576 2576 _____P________ -1 -19.53 83.93 99 6 165
1870 SI MM 03:00:00 NR -19.83 84.01 2595 2595 _____P________ -1 -19.83 84.01 99 6 164
1870 SI MM 06:00:00 NR -20.10 84.10 2614 2614 _____O________ -1 -20.10 84.10 99 9.90 5 162
1870 SI MM 09:00:00 NR -20.34 84.19 2624 2624 _____P________ -1 -20.34 84.19 99 5 160
1870 SI MM 12:00:00 NR -20.56 84.28 2644 2644 _____P________ -1 -20.56 84.28 99 4 158
1870 SI MM 15:00:00 NR -20.75 84.36 2646 2646 _____P________ -1 -20.75 84.36 99 4 156
1870 SI MM 18:00:00 NR -20.92 84.45 2657 2657 _____P________ -1 -20.92 84.45 99 4 154
1870 SI MM 21:00:00 NR -21.08 84.54 2675 2669 _____P________ -1 -21.08 84.54 99 3 152
1870 SI MM 1869-11-08 00:00:00 NR -21.23 84.63 2678 2678 _____P________ -1 -21.23 84.63 99 3 150
1870 SI MM 03:00:00 NR -21.37 84.71 2689 2683 _____P________ -1 -21.37 84.71 99 3 149
1870 SI MM 06:00:00 NR -21.50 84.80 2692 _____O________ -1 -21.50 84.80 99 9.90 3 148